TimeEDT,TemperatureF,Dew PointF,Humidity,Sea Level PressureIn,VisibilityMPH,Wind Direction,Wind SpeedMPH,Gust SpeedMPH,PrecipitationIn,Events,Conditions,WindDirDegrees,DateUTC
12:35 AM,55.4,55.4,100,30.09,3.0,NNW,5.8,-,N/A,Rain,Light Rain,340,2012-10-09 04:35:00
12:55 AM,55.4,55.4,100,30.08,3.0,North,5.8,-,N/A,,Overcast,350,2012-10-09 04:55:00
1:15 AM,55.4,55.4,100,30.08,4.0,North,5.8,-,N/A,,Overcast,360,2012-10-09 05:15:00
1:35 AM,55.4,55.4,100,30.08,3.0,NW,4.6,-,N/A,,Overcast,320,2012-10-09 05:35:00
1:55 AM,55.4,55.4,100,30.09,2.5,NNW,4.6,-,N/A,,Overcast,340,2012-10-09 05:55:00
2:15 AM,55.4,55.4,100,30.09,2.5,NNW,4.6,-,N/A,Rain,Rain,340,2012-10-09 06:15:00
2:55 AM,55.4,55.4,100,30.09,3.0,North,5.8,-,0.01,,Drizzle,350,2012-10-09 06:55:00
3:15 AM,55.4,55.4,100,30.09,4.0,NNW,4.6,-,N/A,,Light Drizzle,340,2012-10-09 07:15:00
3:35 AM,55.4,55.4,100,30.09,7.0,North,5.8,-,0.01,Rain,Rain,350,2012-10-09 07:35:00
4:15 AM,55.4,55.4,100,30.09,5.0,North,6.9,-,N/A,,Drizzle,350,2012-10-09 08:15:00
4:35 AM,55.4,55.4,100,30.08,4.0,NNW,4.6,-,N/A,,Light Drizzle,330,2012-10-09 08:35:00
4:55 AM,55.4,55.4,100,30.08,5.0,NNW,5.8,-,0.01,,Light Drizzle,330,2012-10-09 08:55:00
5:15 AM,55.4,55.4,100,30.08,5.0,North,4.6,-,N/A,,Overcast,350,2012-10-09 09:15:00
5:35 AM,55.4,55.4,100,30.08,7.0,North,6.9,-,N/A,,Overcast,360,2012-10-09 09:35:00
5:55 AM,55.4,55.4,100,30.08,7.0,NNW,5.8,-,N/A,,Light Drizzle,330,2012-10-09 09:55:00
6:15 AM,55.4,55.4,100,30.08,4.0,North,6.9,-,N/A,,Drizzle,350,2012-10-09 10:15:00
6:35 AM,55.4,55.4,100,30.09,5.0,NNW,4.6,-,0.01,,Drizzle,340,2012-10-09 10:35:00
6:55 AM,55.4,55.4,100,30.09,5.0,NNW,5.8,-,0.01,,Drizzle,340,2012-10-09 10:55:00
7:15 AM,55.4,55.4,100,30.09,7.0,NNW,5.8,-,0.01,,Drizzle,340,2012-10-09 11:15:00
7:35 AM,55.4,55.4,100,30.10,7.0,NNW,4.6,-,0.01,,Light Drizzle,330,2012-10-09 11:35:00
7:55 AM,55.4,55.4,100,30.11,7.0,NW,5.8,-,0.01,,Overcast,320,2012-10-09 11:55:00
8:15 AM,55.4,55.4,100,30.11,7.0,NNW,8.1,-,N/A,,Overcast,340,2012-10-09 12:15:00
8:35 AM,55.4,55.4,100,30.11,5.0,NNW,5.8,-,N/A,,Overcast,340,2012-10-09 12:35:00
8:55 AM,55.4,55.4,100,30.12,4.0,North,5.8,-,N/A,,Overcast,350,2012-10-09 12:55:00
9:15 AM,55.4,55.4,100,30.12,3.0,NNW,5.8,-,N/A,,Overcast,340,2012-10-09 13:15:00
9:35 AM,55.4,55.4,100,30.12,3.0,NNW,6.9,-,N/A,,Overcast,340,2012-10-09 13:35:00
9:55 AM,55.4,55.4,100,30.13,4.0,North,5.8,-,N/A,,Overcast,350,2012-10-09 13:55:00
10:15 AM,55.4,55.4,100,30.13,7.0,NNW,5.8,-,N/A,,Overcast,340,2012-10-09 14:15:00
10:35 AM,55.4,55.4,100,30.13,7.0,North,3.5,-,N/A,,Overcast,350,2012-10-09 14:35:00
10:55 AM,55.4,55.4,100,30.12,7.0,NNW,5.8,-,N/A,,Light Drizzle,340,2012-10-09 14:55:00
11:15 AM,55.4,55.4,100,30.12,7.0,NNW,6.9,-,N/A,,Drizzle,330,2012-10-09 15:15:00
11:35 AM,57.2,57.2,100,30.12,5.0,Calm,Calm,-,N/A,,Overcast,0,2012-10-09 15:35:00
11:55 AM,57.2,57.2,100,30.11,10.0,North,5.8,-,N/A,,Overcast,360,2012-10-09 15:55:00
12:15 PM,57.2,57.2,100,30.11,10.0,North,4.6,-,N/A,,Overcast,10,2012-10-09 16:15:00
12:35 PM,57.2,57.2,100,30.11,10.0,North,4.6,-,N/A,,Overcast,10,2012-10-09 16:35:00
12:55 PM,57.2,57.2,100,30.10,10.0,North,4.6,-,N/A,,Overcast,350,2012-10-09 16:55:00
1:15 PM,59.0,57.2,94,30.09,10.0,North,5.8,-,N/A,,Overcast,360,2012-10-09 17:15:00
1:35 PM,59.0,57.2,94,30.08,10.0,North,6.9,-,N/A,,Overcast,360,2012-10-09 17:35:00
1:55 PM,59.0,57.2,94,30.08,10.0,NNW,3.5,-,N/A,,Overcast,340,2012-10-09 17:55:00
2:15 PM,59.0,57.2,94,30.08,10.0,Calm,Calm,-,N/A,,Overcast,0,2012-10-09 18:15:00
2:35 PM,59.0,57.2,94,30.08,10.0,North,5.8,-,0.01,Rain,Rain,350,2012-10-09 18:35:00
2:55 PM,59.0,59.0,100,30.07,7.0,NNW,3.5,-,0.01,Rain,Rain,340,2012-10-09 18:55:00
3:15 PM,59.0,59.0,100,30.07,7.0,Calm,Calm,-,0.01,,Light Drizzle,0,2012-10-09 19:15:00
3:35 PM,59.0,59.0,100,30.07,5.0,NNW,3.5,-,0.01,,Overcast,330,2012-10-09 19:35:00
3:55 PM,59.0,59.0,100,30.07,5.0,Calm,Calm,-,0.02,,Drizzle,0,2012-10-09 19:55:00
4:15 PM,59.0,59.0,100,30.08,4.0,NNW,4.6,-,N/A,,Light Drizzle,340,2012-10-09 20:15:00
4:35 PM,59.0,59.0,100,30.07,3.0,North,3.5,-,N/A,Rain,Rain,350,2012-10-09 20:35:00
4:55 PM,59.0,59.0,100,30.07,3.0,NNW,3.5,-,N/A,,Light Drizzle,340,2012-10-09 20:55:00
5:15 PM,59.0,59.0,100,30.07,4.0,Calm,Calm,-,N/A,,Overcast,0,2012-10-09 21:15:00
5:35 PM,59.0,59.0,100,30.07,4.0,WNW,3.5,-,N/A,,Overcast,300,2012-10-09 21:35:00
5:55 PM,59.0,59.0,100,30.07,4.0,Calm,Calm,-,N/A,Rain,Rain,0,2012-10-09 21:55:00
6:15 PM,59.0,59.0,100,30.07,4.0,NNW,4.6,-,N/A,Rain,Light Rain,330,2012-10-09 22:15:00
6:55 PM,59.0,59.0,100,30.07,2.0,NW,5.8,-,0.01,,Drizzle,320,2012-10-09 22:55:00
7:15 PM,59.0,59.0,100,30.07,2.0,NNW,4.6,-,N/A,,Overcast,340,2012-10-09 23:15:00
7:35 PM,59.0,59.0,100,30.07,1.8,NNW,3.5,-,N/A,Rain,Light Rain,330,2012-10-09 23:35:00
7:55 PM,59.0,59.0,100,30.07,1.8,Calm,Calm,-,N/A,,Overcast,0,2012-10-09 23:55:00
8:15 PM,59.0,59.0,100,30.07,1.2,Calm,Calm,-,N/A,,Overcast,0,2012-10-10 00:15:00
8:35 PM,59.0,59.0,100,30.08,1.0,Calm,Calm,-,N/A,,Overcast,0,2012-10-10 00:35:00
8:55 PM,59.0,59.0,100,30.08,1.0,Calm,Calm,-,N/A,,Overcast,0,2012-10-10 00:55:00
9:15 PM,57.2,57.2,100,30.08,1.0,NW,4.6,-,N/A,,Overcast,320,2012-10-10 01:15:00
9:35 PM,57.2,57.2,100,30.07,1.0,Calm,Calm,-,0.01,,Overcast,0,2012-10-10 01:35:00
9:55 PM,59.0,59.0,100,30.07,1.0,NW,4.6,-,0.01,,Overcast,320,2012-10-10 01:55:00
10:15 PM,57.2,57.2,100,30.07,1.2,NW,3.5,-,N/A,,Overcast,320,2012-10-10 02:15:00
10:35 PM,59.0,59.0,100,30.07,1.5,NW,3.5,-,N/A,,Overcast,320,2012-10-10 02:35:00
10:55 PM,57.2,57.2,100,30.07,1.2,Calm,Calm,-,N/A,,Overcast,0,2012-10-10 02:55:00
11:15 PM,57.2,57.2,100,30.07,1.0,NW,3.5,-,N/A,,Overcast,320,2012-10-10 03:15:00
11:35 PM,57.2,57.2,100,30.06,0.8,NNW,3.5,-,N/A,,Overcast,330,2012-10-10 03:35:00
11:55 PM,57.2,57.2,100,30.06,0.8,NW,3.5,-,N/A,,Overcast,320,2012-10-10 03:55:00